sensor_id;sensor_type;location;lat;lon;timestamp;P1;durP1;ratioP1;P2;durP2;ratioP2
70444;SDS011;57902;49.638;11.070;2024-02-21T00:02:20;13.43;;;2.95;;
70444;SDS011;57902;49.638;11.070;2024-02-21T00:04:47;10.85;;;2.30;;
70444;SDS011;57902;49.638;11.070;2024-02-21T00:07:14;12.50;;;3.25;;
70444;SDS011;57902;49.638;11.070;2024-02-21T00:09:40;10.50;;;2.67;;
70444;SDS011;57902;49.638;11.070;2024-02-21T00:12:07;11.50;;;2.45;;
70444;SDS011;57902;49.638;11.070;2024-02-21T00:14:33;9.40;;;2.38;;
70444;SDS011;57902;49.638;11.070;2024-02-21T00:17:00;11.60;;;2.72;;
70444;SDS011;57902;49.638;11.070;2024-02-21T00:19:26;9.40;;;2.97;;
70444;SDS011;57902;49.638;11.070;2024-02-21T00:21:53;10.70;;;2.60;;
70444;SDS011;57902;49.638;11.070;2024-02-21T00:24:19;14.45;;;3.10;;
70444;SDS011;57902;49.638;11.070;2024-02-21T00:26:46;10.18;;;2.60;;
70444;SDS011;57902;49.638;11.070;2024-02-21T00:29:12;12.77;;;2.63;;
70444;SDS011;57902;49.638;11.070;2024-02-21T00:31:39;15.75;;;3.53;;
70444;SDS011;57902;49.638;11.070;2024-02-21T00:34:06;13.10;;;2.30;;
70444;SDS011;57902;49.638;11.070;2024-02-21T00:36:32;11.55;;;2.90;;
70444;SDS011;57902;49.638;11.070;2024-02-21T00:38:59;9.77;;;2.50;;
70444;SDS011;57902;49.638;11.070;2024-02-21T00:41:25;14.50;;;3.05;;
70444;SDS011;57902;49.638;11.070;2024-02-21T00:43:52;15.25;;;2.90;;
70444;SDS011;57902;49.638;11.070;2024-02-21T00:46:18;9.20;;;2.45;;
70444;SDS011;57902;49.638;11.070;2024-02-21T00:48:45;11.50;;;2.78;;
70444;SDS011;57902;49.638;11.070;2024-02-21T00:51:11;14.27;;;2.90;;
70444;SDS011;57902;49.638;11.070;2024-02-21T00:53:38;12.45;;;3.35;;
70444;SDS011;57902;49.638;11.070;2024-02-21T00:56:05;9.32;;;2.75;;
70444;SDS011;57902;49.638;11.070;2024-02-21T00:58:32;14.57;;;2.65;;
70444;SDS011;57902;49.638;11.070;2024-02-21T01:00:58;13.65;;;2.92;;
70444;SDS011;57902;49.638;11.070;2024-02-21T01:03:26;14.00;;;3.22;;
70444;SDS011;57902;49.638;11.070;2024-02-21T01:05:53;11.57;;;2.70;;
70444;SDS011;57902;49.638;11.070;2024-02-21T01:08:19;9.77;;;2.55;;
70444;SDS011;57902;49.638;11.070;2024-02-21T01:10:46;13.43;;;2.90;;
70444;SDS011;57902;49.638;11.070;2024-02-21T01:13:13;9.55;;;2.80;;
70444;SDS011;57902;49.638;11.070;2024-02-21T01:15:40;12.32;;;2.60;;
70444;SDS011;57902;49.638;11.070;2024-02-21T01:18:07;9.65;;;2.78;;
70444;SDS011;57902;49.638;11.070;2024-02-21T01:20:33;11.07;;;2.70;;
70444;SDS011;57902;49.638;11.070;2024-02-21T01:23:00;13.20;;;2.63;;
70444;SDS011;57902;49.638;11.070;2024-02-21T01:25:26;8.43;;;2.45;;
70444;SDS011;57902;49.638;11.070;2024-02-21T01:27:53;10.18;;;2.50;;
70444;SDS011;57902;49.638;11.070;2024-02-21T01:30:20;11.38;;;2.53;;
70444;SDS011;57902;49.638;11.070;2024-02-21T01:32:46;11.48;;;2.83;;
70444;SDS011;57902;49.638;11.070;2024-02-21T01:35:13;11.05;;;3.08;;
70444;SDS011;57902;49.638;11.070;2024-02-21T01:37:39;12.50;;;3.00;;
70444;SDS011;57902;49.638;11.070;2024-02-21T01:40:06;11.38;;;2.80;;
70444;SDS011;57902;49.638;11.070;2024-02-21T01:42:37;13.52;;;2.75;;
70444;SDS011;57902;49.638;11.070;2024-02-21T01:45:05;10.23;;;2.58;;
70444;SDS011;57902;49.638;11.070;2024-02-21T01:47:31;13.45;;;2.85;;
70444;SDS011;57902;49.638;11.070;2024-02-21T01:49:59;10.45;;;2.92;;
70444;SDS011;57902;49.638;11.070;2024-02-21T01:52:26;10.63;;;2.53;;
70444;SDS011;57902;49.638;11.070;2024-02-21T01:54:52;13.55;;;2.88;;
70444;SDS011;57902;49.638;11.070;2024-02-21T01:57:19;10.27;;;2.58;;
70444;SDS011;57902;49.638;11.070;2024-02-21T01:59:45;13.20;;;2.80;;
70444;SDS011;57902;49.638;11.070;2024-02-21T02:02:12;8.95;;;2.63;;
70444;SDS011;57902;49.638;11.070;2024-02-21T02:04:39;13.50;;;2.88;;
70444;SDS011;57902;49.638;11.070;2024-02-21T02:07:06;10.73;;;2.53;;
70444;SDS011;57902;49.638;11.070;2024-02-21T02:09:33;9.55;;;2.60;;
70444;SDS011;57902;49.638;11.070;2024-02-21T02:12:01;11.15;;;2.95;;
70444;SDS011;57902;49.638;11.070;2024-02-21T02:14:28;12.88;;;3.05;;
70444;SDS011;57902;49.638;11.070;2024-02-21T02:16:54;8.25;;;2.35;;
70444;SDS011;57902;49.638;11.070;2024-02-21T02:19:21;11.60;;;3.13;;
70444;SDS011;57902;49.638;11.070;2024-02-21T02:21:51;14.77;;;2.53;;
70444;SDS011;57902;49.638;11.070;2024-02-21T02:24:23;12.80;;;3.78;;
70444;SDS011;57902;49.638;11.070;2024-02-21T02:26:53;14.80;;;2.90;;
70444;SDS011;57902;49.638;11.070;2024-02-21T02:29:20;10.77;;;2.67;;
70444;SDS011;57902;49.638;11.070;2024-02-21T02:31:46;13.13;;;3.10;;
70444;SDS011;57902;49.638;11.070;2024-02-21T02:34:13;11.20;;;2.80;;
70444;SDS011;57902;49.638;11.070;2024-02-21T02:36:39;9.60;;;2.60;;
70444;SDS011;57902;49.638;11.070;2024-02-21T02:39:06;16.15;;;2.83;;
70444;SDS011;57902;49.638;11.070;2024-02-21T02:41:34;11.30;;;2.95;;
70444;SDS011;57902;49.638;11.070;2024-02-21T02:44:02;11.40;;;2.92;;
70444;SDS011;57902;49.638;11.070;2024-02-21T02:46:28;8.82;;;2.35;;
70444;SDS011;57902;49.638;11.070;2024-02-21T02:48:55;12.40;;;2.90;;
70444;SDS011;57902;49.638;11.070;2024-02-21T02:51:21;12.50;;;2.72;;
70444;SDS011;57902;49.638;11.070;2024-02-21T02:53:48;16.67;;;3.10;;
70444;SDS011;57902;49.638;11.070;2024-02-21T02:56:15;13.85;;;2.70;;
70444;SDS011;57902;49.638;11.070;2024-02-21T02:58:43;12.68;;;2.75;;
70444;SDS011;57902;49.638;11.070;2024-02-21T03:01:10;12.35;;;3.00;;
70444;SDS011;57902;49.638;11.070;2024-02-21T03:03:37;11.02;;;2.60;;
70444;SDS011;57902;49.638;11.070;2024-02-21T03:06:04;16.27;;;3.10;;
70444;SDS011;57902;49.638;11.070;2024-02-21T03:08:31;11.63;;;2.85;;
70444;SDS011;57902;49.638;11.070;2024-02-21T03:10:58;11.40;;;3.00;;
70444;SDS011;57902;49.638;11.070;2024-02-21T03:13:26;13.15;;;2.83;;
70444;SDS011;57902;49.638;11.070;2024-02-21T03:15:52;18.10;;;2.83;;
70444;SDS011;57902;49.638;11.070;2024-02-21T03:18:19;16.73;;;2.92;;
70444;SDS011;57902;49.638;11.070;2024-02-21T03:20:45;9.43;;;2.70;;
70444;SDS011;57902;49.638;11.070;2024-02-21T03:23:12;10.43;;;2.83;;
70444;SDS011;57902;49.638;11.070;2024-02-21T03:25:38;15.65;;;2.63;;
70444;SDS011;57902;49.638;11.070;2024-02-21T03:28:05;13.25;;;2.70;;
70444;SDS011;57902;49.638;11.070;2024-02-21T03:30:32;9.30;;;2.63;;
70444;SDS011;57902;49.638;11.070;2024-02-21T03:32:59;10.50;;;2.85;;
70444;SDS011;57902;49.638;11.070;2024-02-21T03:35:27;14.73;;;3.08;;
70444;SDS011;57902;49.638;11.070;2024-02-21T03:37:54;7.55;;;2.33;;
70444;SDS011;57902;49.638;11.070;2024-02-21T03:40:20;14.68;;;2.95;;
70444;SDS011;57902;49.638;11.070;2024-02-21T03:42:47;9.32;;;2.70;;
70444;SDS011;57902;49.638;11.070;2024-02-21T03:45:14;9.60;;;2.55;;
70444;SDS011;57902;49.638;11.070;2024-02-21T03:47:40;13.10;;;2.50;;
70444;SDS011;57902;49.638;11.070;2024-02-21T03:50:07;10.18;;;2.55;;
70444;SDS011;57902;49.638;11.070;2024-02-21T03:52:34;12.45;;;3.05;;
70444;SDS011;57902;49.638;11.070;2024-02-21T03:55:00;10.35;;;3.13;;
70444;SDS011;57902;49.638;11.070;2024-02-21T03:57:27;10.27;;;2.83;;
70444;SDS011;57902;49.638;11.070;2024-02-21T03:59:53;9.20;;;2.42;;
70444;SDS011;57902;49.638;11.070;2024-02-21T04:02:20;10.27;;;2.60;;
70444;SDS011;57902;49.638;11.070;2024-02-21T04:04:46;11.00;;;2.78;;
70444;SDS011;57902;49.638;11.070;2024-02-21T04:07:14;11.93;;;2.70;;
70444;SDS011;57902;49.638;11.070;2024-02-21T04:09:41;10.48;;;2.95;;
70444;SDS011;57902;49.638;11.070;2024-02-21T04:12:08;12.25;;;2.80;;
70444;SDS011;57902;49.638;11.070;2024-02-21T04:14:35;9.88;;;2.72;;
70444;SDS011;57902;49.638;11.070;2024-02-21T04:17:02;13.50;;;3.15;;
70444;SDS011;57902;49.638;11.070;2024-02-21T04:19:29;9.50;;;2.25;;
70444;SDS011;57902;49.638;11.070;2024-02-21T04:21:57;10.48;;;2.42;;
70444;SDS011;57902;49.638;11.070;2024-02-21T04:24:23;9.27;;;2.33;;
70444;SDS011;57902;49.638;11.070;2024-02-21T04:26:50;10.90;;;2.38;;
70444;SDS011;57902;49.638;11.070;2024-02-21T04:29:17;10.18;;;2.65;;
70444;SDS011;57902;49.638;11.070;2024-02-21T04:31:43;10.70;;;2.75;;
70444;SDS011;57902;49.638;11.070;2024-02-21T04:34:10;11.18;;;2.55;;
70444;SDS011;57902;49.638;11.070;2024-02-21T04:36:37;9.32;;;2.58;;
70444;SDS011;57902;49.638;11.070;2024-02-21T04:39:03;10.40;;;3.08;;
70444;SDS011;57902;49.638;11.070;2024-02-21T04:41:30;14.07;;;3.00;;
70444;SDS011;57902;49.638;11.070;2024-02-21T04:43:57;11.82;;;3.17;;
70444;SDS011;57902;49.638;11.070;2024-02-21T04:46:23;9.32;;;2.47;;
70444;SDS011;57902;49.638;11.070;2024-02-21T04:48:50;12.00;;;3.17;;
70444;SDS011;57902;49.638;11.070;2024-02-21T04:51:16;17.58;;;3.05;;
70444;SDS011;57902;49.638;11.070;2024-02-21T04:53:43;12.18;;;2.95;;
70444;SDS011;57902;49.638;11.070;2024-02-21T04:56:10;12.93;;;3.03;;
70444;SDS011;57902;49.638;11.070;2024-02-21T04:58:37;9.77;;;2.58;;
70444;SDS011;57902;49.638;11.070;2024-02-21T05:01:05;8.95;;;2.53;;
70444;SDS011;57902;49.638;11.070;2024-02-21T05:03:32;10.88;;;2.80;;
70444;SDS011;57902;49.638;11.070;2024-02-21T05:05:59;10.70;;;2.65;;
70444;SDS011;57902;49.638;11.070;2024-02-21T05:08:25;10.90;;;2.53;;
70444;SDS011;57902;49.638;11.070;2024-02-21T05:10:52;8.68;;;2.35;;
70444;SDS011;57902;49.638;11.070;2024-02-21T05:13:19;11.32;;;2.60;;
70444;SDS011;57902;49.638;11.070;2024-02-21T05:15:45;11.23;;;2.55;;
70444;SDS011;57902;49.638;11.070;2024-02-21T05:18:12;12.40;;;3.20;;
70444;SDS011;57902;49.638;11.070;2024-02-21T05:20:38;9.38;;;2.67;;
70444;SDS011;57902;49.638;11.070;2024-02-21T05:23:05;9.98;;;2.30;;
70444;SDS011;57902;49.638;11.070;2024-02-21T05:25:31;10.95;;;2.80;;
70444;SDS011;57902;49.638;11.070;2024-02-21T05:27:58;17.80;;;3.17;;
70444;SDS011;57902;49.638;11.070;2024-02-21T05:30:28;13.25;;;3.60;;
70444;SDS011;57902;49.638;11.070;2024-02-21T05:32:55;15.35;;;3.72;;
70444;SDS011;57902;49.638;11.070;2024-02-21T05:35:26;12.73;;;4.75;;
70444;SDS011;57902;49.638;11.070;2024-02-21T05:37:54;10.13;;;3.63;;
70444;SDS011;57902;49.638;11.070;2024-02-21T05:40:20;9.88;;;2.75;;
70444;SDS011;57902;49.638;11.070;2024-02-21T05:42:47;9.95;;;2.80;;
70444;SDS011;57902;49.638;11.070;2024-02-21T05:45:13;10.23;;;3.17;;
70444;SDS011;57902;49.638;11.070;2024-02-21T05:47:41;9.18;;;2.60;;
70444;SDS011;57902;49.638;11.070;2024-02-21T05:50:08;10.70;;;3.45;;
70444;SDS011;57902;49.638;11.070;2024-02-21T05:52:36;9.45;;;2.92;;
70444;SDS011;57902;49.638;11.070;2024-02-21T05:55:02;7.50;;;2.63;;
70444;SDS011;57902;49.638;11.070;2024-02-21T05:57:29;7.78;;;2.78;;
70444;SDS011;57902;49.638;11.070;2024-02-21T05:59:55;9.88;;;3.20;;
70444;SDS011;57902;49.638;11.070;2024-02-21T06:02:22;14.07;;;3.25;;
70444;SDS011;57902;49.638;11.070;2024-02-21T06:04:48;9.82;;;2.67;;
70444;SDS011;57902;49.638;11.070;2024-02-21T06:07:15;10.63;;;2.70;;
70444;SDS011;57902;49.638;11.070;2024-02-21T06:09:41;9.25;;;2.47;;
70444;SDS011;57902;49.638;11.070;2024-02-21T06:12:08;11.90;;;2.83;;
70444;SDS011;57902;49.638;11.070;2024-02-21T06:14:34;9.40;;;2.55;;
70444;SDS011;57902;49.638;11.070;2024-02-21T06:17:01;10.90;;;2.80;;
70444;SDS011;57902;49.638;11.070;2024-02-21T06:19:28;10.85;;;3.13;;
70444;SDS011;57902;49.638;11.070;2024-02-21T06:21:55;17.33;;;3.53;;
70444;SDS011;57902;49.638;11.070;2024-02-21T06:24:21;13.85;;;2.95;;
70444;SDS011;57902;49.638;11.070;2024-02-21T06:26:48;7.38;;;2.75;;
70444;SDS011;57902;49.638;11.070;2024-02-21T06:29:14;11.38;;;2.65;;
70444;SDS011;57902;49.638;11.070;2024-02-21T06:31:41;11.75;;;3.42;;
70444;SDS011;57902;49.638;11.070;2024-02-21T06:34:07;9.82;;;2.65;;
70444;SDS011;57902;49.638;11.070;2024-02-21T06:36:34;13.88;;;3.00;;
70444;SDS011;57902;49.638;11.070;2024-02-21T06:39:00;10.15;;;2.50;;
70444;SDS011;57902;49.638;11.070;2024-02-21T06:41:27;10.93;;;2.95;;
70444;SDS011;57902;49.638;11.070;2024-02-21T06:43:54;8.48;;;2.60;;
70444;SDS011;57902;49.638;11.070;2024-02-21T06:46:27;13.85;;;2.95;;
70444;SDS011;57902;49.638;11.070;2024-02-21T06:49:00;9.25;;;2.78;;
70444;SDS011;57902;49.638;11.070;2024-02-21T06:51:27;12.00;;;3.17;;
70444;SDS011;57902;49.638;11.070;2024-02-21T06:53:54;11.43;;;3.40;;
70444;SDS011;57902;49.638;11.070;2024-02-21T06:56:22;9.98;;;3.30;;
70444;SDS011;57902;49.638;11.070;2024-02-21T06:58:53;11.65;;;3.03;;
70444;SDS011;57902;49.638;11.070;2024-02-21T07:01:19;11.25;;;3.10;;
70444;SDS011;57902;49.638;11.070;2024-02-21T07:03:46;7.85;;;2.83;;
70444;SDS011;57902;49.638;11.070;2024-02-21T07:06:13;11.60;;;3.20;;
70444;SDS011;57902;49.638;11.070;2024-02-21T07:08:39;10.20;;;2.58;;
70444;SDS011;57902;49.638;11.070;2024-02-21T07:11:06;9.90;;;3.08;;
70444;SDS011;57902;49.638;11.070;2024-02-21T07:13:32;13.05;;;2.92;;
70444;SDS011;57902;49.638;11.070;2024-02-21T07:15:59;8.90;;;3.20;;
70444;SDS011;57902;49.638;11.070;2024-02-21T07:18:25;11.90;;;3.53;;
70444;SDS011;57902;49.638;11.070;2024-02-21T07:20:52;11.63;;;2.80;;
70444;SDS011;57902;49.638;11.070;2024-02-21T07:23:18;9.02;;;3.25;;
70444;SDS011;57902;49.638;11.070;2024-02-21T07:25:45;13.88;;;3.28;;
70444;SDS011;57902;49.638;11.070;2024-02-21T07:28:12;13.07;;;3.58;;
70444;SDS011;57902;49.638;11.070;2024-02-21T07:30:39;12.80;;;3.05;;
70444;SDS011;57902;49.638;11.070;2024-02-21T07:33:06;11.63;;;3.10;;
70444;SDS011;57902;49.638;11.070;2024-02-21T07:35:33;8.80;;;2.85;;
70444;SDS011;57902;49.638;11.070;2024-02-21T07:38:00;12.57;;;3.03;;
70444;SDS011;57902;49.638;11.070;2024-02-21T07:40:26;11.27;;;3.00;;
70444;SDS011;57902;49.638;11.070;2024-02-21T07:42:53;17.23;;;3.33;;
70444;SDS011;57902;49.638;11.070;2024-02-21T07:45:19;14.13;;;3.15;;
70444;SDS011;57902;49.638;11.070;2024-02-21T07:47:50;12.35;;;3.10;;
70444;SDS011;57902;49.638;11.070;2024-02-21T07:50:17;12.13;;;3.28;;
70444;SDS011;57902;49.638;11.070;2024-02-21T07:52:43;12.80;;;3.13;;
70444;SDS011;57902;49.638;11.070;2024-02-21T07:55:10;13.25;;;3.25;;
70444;SDS011;57902;49.638;11.070;2024-02-21T07:57:36;10.32;;;2.80;;
70444;SDS011;57902;49.638;11.070;2024-02-21T08:00:03;10.60;;;2.92;;
70444;SDS011;57902;49.638;11.070;2024-02-21T08:02:30;12.50;;;3.00;;
70444;SDS011;57902;49.638;11.070;2024-02-21T08:04:57;10.90;;;2.92;;
70444;SDS011;57902;49.638;11.070;2024-02-21T08:07:23;13.32;;;3.38;;
70444;SDS011;57902;49.638;11.070;2024-02-21T08:09:50;11.00;;;3.20;;
70444;SDS011;57902;49.638;11.070;2024-02-21T08:12:16;11.30;;;3.25;;
70444;SDS011;57902;49.638;11.070;2024-02-21T08:14:43;9.05;;;2.90;;
70444;SDS011;57902;49.638;11.070;2024-02-21T08:17:12;12.57;;;3.15;;
70444;SDS011;57902;49.638;11.070;2024-02-21T08:19:38;9.93;;;2.70;;
70444;SDS011;57902;49.638;11.070;2024-02-21T08:22:05;12.10;;;3.00;;
70444;SDS011;57902;49.638;11.070;2024-02-21T08:24:32;8.75;;;2.47;;
70444;SDS011;57902;49.638;11.070;2024-02-21T08:26:58;15.05;;;2.95;;
70444;SDS011;57902;49.638;11.070;2024-02-21T08:29:25;9.93;;;2.47;;
70444;SDS011;57902;49.638;11.070;2024-02-21T08:31:52;11.52;;;2.72;;
70444;SDS011;57902;49.638;11.070;2024-02-21T08:34:19;10.10;;;2.70;;
70444;SDS011;57902;49.638;11.070;2024-02-21T08:36:46;11.80;;;2.78;;
70444;SDS011;57902;49.638;11.070;2024-02-21T08:39:13;9.55;;;2.90;;
70444;SDS011;57902;49.638;11.070;2024-02-21T08:41:42;10.90;;;2.50;;
70444;SDS011;57902;49.638;11.070;2024-02-21T08:44:22;12.75;;;2.33;;
70444;SDS011;57902;49.638;11.070;2024-02-21T08:46:53;12.65;;;2.45;;
70444;SDS011;57902;49.638;11.070;2024-02-21T08:49:20;11.55;;;2.65;;
70444;SDS011;57902;49.638;11.070;2024-02-21T08:51:47;11.65;;;2.88;;
70444;SDS011;57902;49.638;11.070;2024-02-21T08:54:13;12.73;;;2.40;;
70444;SDS011;57902;49.638;11.070;2024-02-21T08:56:40;8.02;;;2.13;;
70444;SDS011;57902;49.638;11.070;2024-02-21T08:59:06;14.95;;;2.50;;
70444;SDS011;57902;49.638;11.070;2024-02-21T09:01:33;11.07;;;2.20;;
70444;SDS011;57902;49.638;11.070;2024-02-21T09:04:01;9.15;;;2.22;;
70444;SDS011;57902;49.638;11.070;2024-02-21T09:06:29;8.15;;;2.30;;
70444;SDS011;57902;49.638;11.070;2024-02-21T09:08:57;7.80;;;2.35;;
70444;SDS011;57902;49.638;11.070;2024-02-21T09:11:24;9.18;;;2.70;;
70444;SDS011;57902;49.638;11.070;2024-02-21T09:13:51;7.40;;;1.98;;
70444;SDS011;57902;49.638;11.070;2024-02-21T09:16:17;9.10;;;2.67;;
70444;SDS011;57902;49.638;11.070;2024-02-21T09:18:44;10.90;;;2.55;;
70444;SDS011;57902;49.638;11.070;2024-02-21T09:21:10;10.85;;;2.72;;
70444;SDS011;57902;49.638;11.070;2024-02-21T09:23:37;7.60;;;2.22;;
70444;SDS011;57902;49.638;11.070;2024-02-21T09:26:03;14.43;;;2.80;;
70444;SDS011;57902;49.638;11.070;2024-02-21T09:28:30;9.75;;;2.30;;
70444;SDS011;57902;49.638;11.070;2024-02-21T09:30:57;10.38;;;2.25;;
70444;SDS011;57902;49.638;11.070;2024-02-21T09:33:24;6.05;;;2.15;;
70444;SDS011;57902;49.638;11.070;2024-02-21T09:35:58;9.00;;;1.50;;
70444;SDS011;57902;49.638;11.070;2024-02-21T09:38:24;8.48;;;1.73;;
70444;SDS011;57902;49.638;11.070;2024-02-21T09:41:34;10.05;;;1.88;;
70444;SDS011;57902;49.638;11.070;2024-02-21T09:43:51;8.07;;;1.63;;
70444;SDS011;57902;49.638;11.070;2024-02-21T09:46:24;12.18;;;2.03;;
70444;SDS011;57902;49.638;11.070;2024-02-21T09:49:13;8.85;;;1.90;;
70444;SDS011;57902;49.638;11.070;2024-02-21T09:51:53;7.03;;;1.67;;
70444;SDS011;57902;49.638;11.070;2024-02-21T09:54:21;9.32;;;1.77;;
70444;SDS011;57902;49.638;11.070;2024-02-21T09:56:48;9.82;;;1.70;;
70444;SDS011;57902;49.638;11.070;2024-02-21T09:59:15;10.63;;;1.80;;
70444;SDS011;57902;49.638;11.070;2024-02-21T10:01:45;8.75;;;1.90;;
70444;SDS011;57902;49.638;11.070;2024-02-21T10:04:13;7.20;;;1.90;;
70444;SDS011;57902;49.638;11.070;2024-02-21T10:06:40;7.80;;;2.13;;
70444;SDS011;57902;49.638;11.070;2024-02-21T10:09:07;6.50;;;1.52;;
70444;SDS011;57902;49.638;11.070;2024-02-21T10:11:34;9.40;;;1.60;;
70444;SDS011;57902;49.638;11.070;2024-02-21T10:14:03;7.60;;;1.75;;
70444;SDS011;57902;49.638;11.070;2024-02-21T10:16:31;7.00;;;1.50;;
70444;SDS011;57902;49.638;11.070;2024-02-21T10:18:58;10.32;;;1.88;;
70444;SDS011;57902;49.638;11.070;2024-02-21T10:21:25;8.05;;;1.52;;
70444;SDS011;57902;49.638;11.070;2024-02-21T10:23:51;12.23;;;1.80;;
70444;SDS011;57902;49.638;11.070;2024-02-21T10:26:18;8.70;;;2.17;;
70444;SDS011;57902;49.638;11.070;2024-02-21T10:28:49;8.73;;;1.77;;
70444;SDS011;57902;49.638;11.070;2024-02-21T10:31:25;12.48;;;2.05;;
70444;SDS011;57902;49.638;11.070;2024-02-21T10:36:25;7.13;;;1.95;;
70444;SDS011;57902;49.638;11.070;2024-02-21T10:38:52;9.98;;;1.90;;
70444;SDS011;57902;49.638;11.070;2024-02-21T10:41:19;10.25;;;1.90;;
70444;SDS011;57902;49.638;11.070;2024-02-21T10:46:17;5.18;;;1.55;;
70444;SDS011;57902;49.638;11.070;2024-02-21T10:48:45;8.23;;;1.50;;
70444;SDS011;57902;49.638;11.070;2024-02-21T10:51:16;6.82;;;1.70;;
70444;SDS011;57902;49.638;11.070;2024-02-21T10:56:48;8.05;;;1.90;;
70444;SDS011;57902;49.638;11.070;2024-02-21T10:59:16;6.57;;;1.90;;
70444;SDS011;57902;49.638;11.070;2024-02-21T11:01:44;9.07;;;2.15;;
70444;SDS011;57902;49.638;11.070;2024-02-21T11:04:11;8.68;;;1.90;;
70444;SDS011;57902;49.638;11.070;2024-02-21T11:06:39;8.20;;;2.10;;
70444;SDS011;57902;49.638;11.070;2024-02-21T11:09:08;12.27;;;1.98;;
70444;SDS011;57902;49.638;11.070;2024-02-21T11:11:37;9.85;;;2.22;;
70444;SDS011;57902;49.638;11.070;2024-02-21T11:14:10;10.68;;;2.25;;
70444;SDS011;57902;49.638;11.070;2024-02-21T11:16:47;9.10;;;1.80;;
70444;SDS011;57902;49.638;11.070;2024-02-21T11:21:54;7.05;;;1.52;;
70444;SDS011;57902;49.638;11.070;2024-02-21T11:24:28;7.20;;;1.80;;
70444;SDS011;57902;49.638;11.070;2024-02-21T11:27:08;5.45;;;1.67;;
70444;SDS011;57902;49.638;11.070;2024-02-21T11:29:39;6.65;;;1.90;;
70444;SDS011;57902;49.638;11.070;2024-02-21T11:32:10;11.25;;;2.20;;
70444;SDS011;57902;49.638;11.070;2024-02-21T11:34:40;11.15;;;2.60;;
70444;SDS011;57902;49.638;11.070;2024-02-21T11:37:13;9.52;;;2.00;;
70444;SDS011;57902;49.638;11.070;2024-02-21T11:39:43;7.03;;;1.75;;
70444;SDS011;57902;49.638;11.070;2024-02-21T11:42:10;8.35;;;1.60;;
70444;SDS011;57902;49.638;11.070;2024-02-21T11:44:38;7.30;;;1.75;;
70444;SDS011;57902;49.638;11.070;2024-02-21T11:47:06;6.55;;;1.65;;
70444;SDS011;57902;49.638;11.070;2024-02-21T11:49:44;8.77;;;1.50;;
70444;SDS011;57902;49.638;11.070;2024-02-21T11:52:12;6.63;;;1.42;;
70444;SDS011;57902;49.638;11.070;2024-02-21T11:54:42;5.03;;;1.20;;
70444;SDS011;57902;49.638;11.070;2024-02-21T11:57:08;5.22;;;1.25;;
70444;SDS011;57902;49.638;11.070;2024-02-21T11:59:35;8.25;;;1.60;;
70444;SDS011;57902;49.638;11.070;2024-02-21T12:02:01;10.77;;;1.50;;
70444;SDS011;57902;49.638;11.070;2024-02-21T12:06:59;10.15;;;1.70;;
70444;SDS011;57902;49.638;11.070;2024-02-21T12:09:26;6.55;;;1.40;;
70444;SDS011;57902;49.638;11.070;2024-02-21T12:12:02;10.43;;;1.80;;
70444;SDS011;57902;49.638;11.070;2024-02-21T12:14:34;8.73;;;1.70;;
70444;SDS011;57902;49.638;11.070;2024-02-21T12:19:32;8.80;;;1.50;;
70444;SDS011;57902;49.638;11.070;2024-02-21T12:21:59;8.85;;;1.63;;
70444;SDS011;57902;49.638;11.070;2024-02-21T12:24:27;13.25;;;3.65;;
70444;SDS011;57902;49.638;11.070;2024-02-21T12:26:54;6.82;;;2.40;;
70444;SDS011;57902;49.638;11.070;2024-02-21T12:29:23;4.68;;;1.67;;
70444;SDS011;57902;49.638;11.070;2024-02-21T12:31:55;9.65;;;1.75;;
70444;SDS011;57902;49.638;11.070;2024-02-21T12:34:23;8.98;;;3.20;;
70444;SDS011;57902;49.638;11.070;2024-02-21T12:37:04;6.22;;;1.75;;
70444;SDS011;57902;49.638;11.070;2024-02-21T12:39:31;10.73;;;2.10;;
70444;SDS011;57902;49.638;11.070;2024-02-21T12:41:58;8.40;;;2.28;;
70444;SDS011;57902;49.638;11.070;2024-02-21T12:44:25;7.22;;;2.17;;
70444;SDS011;57902;49.638;11.070;2024-02-21T12:46:52;6.88;;;2.30;;
70444;SDS011;57902;49.638;11.070;2024-02-21T12:49:21;6.10;;;1.50;;
70444;SDS011;57902;49.638;11.070;2024-02-21T12:51:48;8.48;;;1.90;;
70444;SDS011;57902;49.638;11.070;2024-02-21T12:54:15;5.25;;;1.25;;
70444;SDS011;57902;49.638;11.070;2024-02-21T12:56:41;7.63;;;1.42;;
70444;SDS011;57902;49.638;11.070;2024-02-21T12:59:08;7.43;;;1.65;;
70444;SDS011;57902;49.638;11.070;2024-02-21T13:01:37;8.05;;;1.45;;
70444;SDS011;57902;49.638;11.070;2024-02-21T13:04:05;4.47;;;1.40;;
70444;SDS011;57902;49.638;11.070;2024-02-21T13:06:32;5.80;;;1.40;;
70444;SDS011;57902;49.638;11.070;2024-02-21T13:08:58;8.05;;;1.50;;
70444;SDS011;57902;49.638;11.070;2024-02-21T13:11:27;7.35;;;1.35;;
70444;SDS011;57902;49.638;11.070;2024-02-21T13:13:58;6.00;;;1.40;;
70444;SDS011;57902;49.638;11.070;2024-02-21T13:16:24;7.55;;;1.70;;
70444;SDS011;57902;49.638;11.070;2024-02-21T13:18:52;5.57;;;1.23;;
70444;SDS011;57902;49.638;11.070;2024-02-21T13:21:19;7.13;;;1.10;;
70444;SDS011;57902;49.638;11.070;2024-02-21T13:23:46;6.32;;;1.40;;
70444;SDS011;57902;49.638;11.070;2024-02-21T13:26:13;5.07;;;1.20;;
70444;SDS011;57902;49.638;11.070;2024-02-21T13:28:40;10.88;;;1.50;;
70444;SDS011;57902;49.638;11.070;2024-02-21T13:31:06;8.43;;;1.30;;
70444;SDS011;57902;49.638;11.070;2024-02-21T13:33:33;8.27;;;1.45;;
70444;SDS011;57902;49.638;11.070;2024-02-21T13:36:00;7.85;;;1.42;;
70444;SDS011;57902;49.638;11.070;2024-02-21T13:40:54;6.15;;;1.20;;
70444;SDS011;57902;49.638;11.070;2024-02-21T13:43:21;3.78;;;1.13;;
70444;SDS011;57902;49.638;11.070;2024-02-21T13:45:57;4.97;;;1.00;;
70444;SDS011;57902;49.638;11.070;2024-02-21T13:48:25;6.15;;;1.13;;
70444;SDS011;57902;49.638;11.070;2024-02-21T13:50:53;7.43;;;1.35;;
70444;SDS011;57902;49.638;11.070;2024-02-21T13:53:20;9.93;;;1.40;;
70444;SDS011;57902;49.638;11.070;2024-02-21T13:55:47;4.40;;;1.08;;
70444;SDS011;57902;49.638;11.070;2024-02-21T13:58:14;7.68;;;1.40;;
70444;SDS011;57902;49.638;11.070;2024-02-21T14:00:42;3.97;;;1.15;;
70444;SDS011;57902;49.638;11.070;2024-02-21T14:03:08;5.72;;;1.30;;
70444;SDS011;57902;49.638;11.070;2024-02-21T14:05:35;5.30;;;1.15;;
70444;SDS011;57902;49.638;11.070;2024-02-21T14:08:02;4.88;;;1.10;;
70444;SDS011;57902;49.638;11.070;2024-02-21T14:10:29;7.45;;;1.38;;
70444;SDS011;57902;49.638;11.070;2024-02-21T14:12:56;5.97;;;1.10;;
70444;SDS011;57902;49.638;11.070;2024-02-21T14:15:23;5.18;;;1.17;;
70444;SDS011;57902;49.638;11.070;2024-02-21T14:17:51;7.78;;;1.05;;
70444;SDS011;57902;49.638;11.070;2024-02-21T14:20:17;11.48;;;2.22;;
70444;SDS011;57902;49.638;11.070;2024-02-21T14:22:44;4.07;;;1.27;;
70444;SDS011;57902;49.638;11.070;2024-02-21T14:25:10;7.07;;;1.55;;
70444;SDS011;57902;49.638;11.070;2024-02-21T14:27:38;5.65;;;1.08;;
70444;SDS011;57902;49.638;11.070;2024-02-21T14:30:05;9.30;;;1.88;;
70444;SDS011;57902;49.638;11.070;2024-02-21T14:32:32;4.85;;;1.10;;
70444;SDS011;57902;49.638;11.070;2024-02-21T14:34:59;5.68;;;1.00;;
70444;SDS011;57902;49.638;11.070;2024-02-21T14:37:30;6.63;;;1.23;;
70444;SDS011;57902;49.638;11.070;2024-02-21T14:39:56;2.25;;;0.77;;
70444;SDS011;57902;49.638;11.070;2024-02-21T14:42:23;10.38;;;1.23;;
70444;SDS011;57902;49.638;11.070;2024-02-21T14:44:49;6.45;;;1.27;;
70444;SDS011;57902;49.638;11.070;2024-02-21T14:47:16;6.80;;;1.20;;
70444;SDS011;57902;49.638;11.070;2024-02-21T14:49:42;3.30;;;0.98;;